sensor_id;sensor_type;location;lat;lon;timestamp;P1;durP1;ratioP1;P2;durP2;ratioP2
30233;SDS011;17046;52.074;4.748;2022-09-13T00:00:37;17.50;;;14.15;;
30233;SDS011;17046;52.074;4.748;2022-09-13T00:03:05;21.50;;;14.38;;
30233;SDS011;17046;52.074;4.748;2022-09-13T00:05:31;18.65;;;13.40;;
30233;SDS011;17046;52.074;4.748;2022-09-13T00:07:57;18.77;;;13.57;;
30233;SDS011;17046;52.074;4.748;2022-09-13T00:10:23;19.48;;;13.57;;
30233;SDS011;17046;52.074;4.748;2022-09-13T00:12:50;18.15;;;12.93;;
30233;SDS011;17046;52.074;4.748;2022-09-13T00:15:16;15.98;;;11.82;;
30233;SDS011;17046;52.074;4.748;2022-09-13T00:17:42;15.95;;;11.93;;
30233;SDS011;17046;52.074;4.748;2022-09-13T00:20:08;17.55;;;12.45;;
30233;SDS011;17046;52.074;4.748;2022-09-13T00:22:34;15.73;;;11.20;;
30233;SDS011;17046;52.074;4.748;2022-09-13T00:25:00;18.80;;;11.90;;
30233;SDS011;17046;52.074;4.748;2022-09-13T00:27:27;14.70;;;11.00;;
30233;SDS011;17046;52.074;4.748;2022-09-13T00:29:52;16.70;;;11.75;;
30233;SDS011;17046;52.074;4.748;2022-09-13T00:32:18;16.48;;;11.52;;
30233;SDS011;17046;52.074;4.748;2022-09-13T00:34:44;19.80;;;13.48;;
30233;SDS011;17046;52.074;4.748;2022-09-13T00:37:09;15.52;;;11.98;;
30233;SDS011;17046;52.074;4.748;2022-09-13T00:39:35;12.15;;;9.73;;
30233;SDS011;17046;52.074;4.748;2022-09-13T00:42:01;16.02;;;11.57;;
30233;SDS011;17046;52.074;4.748;2022-09-13T00:50:50;22.77;;;17.10;;
30233;SDS011;17046;52.074;4.748;2022-09-13T00:53:04;23.70;;;17.00;;
30233;SDS011;17046;52.074;4.748;2022-09-13T00:56:36;22.92;;;16.17;;
30233;SDS011;17046;52.074;4.748;2022-09-13T00:58:34;21.65;;;15.88;;
30233;SDS011;17046;52.074;4.748;2022-09-13T01:01:03;24.50;;;16.58;;
30233;SDS011;17046;52.074;4.748;2022-09-13T01:03:32;21.02;;;15.80;;
30233;SDS011;17046;52.074;4.748;2022-09-13T01:06:00;23.98;;;16.77;;
30233;SDS011;17046;52.074;4.748;2022-09-13T01:08:30;25.52;;;18.13;;
30233;SDS011;17046;52.074;4.748;2022-09-13T01:10:59;23.70;;;17.88;;
30233;SDS011;17046;52.074;4.748;2022-09-13T01:13:27;24.48;;;17.48;;
30233;SDS011;17046;52.074;4.748;2022-09-13T01:15:56;26.85;;;18.33;;
30233;SDS011;17046;52.074;4.748;2022-09-13T01:18:22;24.63;;;17.48;;
30233;SDS011;17046;52.074;4.748;2022-09-13T01:26:28;23.80;;;17.50;;
30233;SDS011;17046;52.074;4.748;2022-09-13T01:40:02;23.00;;;16.98;;
30233;SDS011;17046;52.074;4.748;2022-09-13T01:45:18;22.15;;;15.93;;
30233;SDS011;17046;52.074;4.748;2022-09-13T01:50:42;26.30;;;17.58;;
30233;SDS011;17046;52.074;4.748;2022-09-13T01:53:18;23.38;;;17.20;;
30233;SDS011;17046;52.074;4.748;2022-09-13T01:55:50;22.05;;;15.88;;
30233;SDS011;17046;52.074;4.748;2022-09-13T01:58:38;26.00;;;17.83;;
30233;SDS011;17046;52.074;4.748;2022-09-13T02:01:35;23.45;;;16.90;;
30233;SDS011;17046;52.074;4.748;2022-09-13T02:04:16;22.75;;;16.55;;
30233;SDS011;17046;52.074;4.748;2022-09-13T02:07:31;24.33;;;17.77;;
30233;SDS011;17046;52.074;4.748;2022-09-13T02:09:42;21.90;;;16.17;;
30233;SDS011;17046;52.074;4.748;2022-09-13T02:12:19;21.48;;;15.68;;
30233;SDS011;17046;52.074;4.748;2022-09-13T02:15:21;23.13;;;16.70;;
30233;SDS011;17046;52.074;4.748;2022-09-13T02:17:48;23.92;;;16.83;;
30233;SDS011;17046;52.074;4.748;2022-09-13T02:20:25;23.27;;;17.45;;
30233;SDS011;17046;52.074;4.748;2022-09-13T02:22:55;21.38;;;15.57;;
30233;SDS011;17046;52.074;4.748;2022-09-13T02:25:25;21.25;;;16.83;;
30233;SDS011;17046;52.074;4.748;2022-09-13T02:27:54;24.98;;;16.48;;
30233;SDS011;17046;52.074;4.748;2022-09-13T02:30:25;25.00;;;17.48;;
30233;SDS011;17046;52.074;4.748;2022-09-13T02:32:54;24.60;;;17.05;;
30233;SDS011;17046;52.074;4.748;2022-09-13T02:35:34;23.45;;;16.70;;
30233;SDS011;17046;52.074;4.748;2022-09-13T02:38:06;21.08;;;15.55;;
30233;SDS011;17046;52.074;4.748;2022-09-13T02:40:38;22.95;;;17.35;;
30233;SDS011;17046;52.074;4.748;2022-09-13T02:43:14;21.73;;;16.52;;
30233;SDS011;17046;52.074;4.748;2022-09-13T02:45:48;22.70;;;15.73;;
30233;SDS011;17046;52.074;4.748;2022-09-13T02:48:32;23.33;;;16.23;;
30233;SDS011;17046;52.074;4.748;2022-09-13T02:51:13;22.40;;;16.63;;
30233;SDS011;17046;52.074;4.748;2022-09-13T02:58:55;25.83;;;17.20;;
30233;SDS011;17046;52.074;4.748;2022-09-13T03:01:26;18.98;;;15.52;;
30233;SDS011;17046;52.074;4.748;2022-09-13T03:03:52;23.20;;;16.40;;
30233;SDS011;17046;52.074;4.748;2022-09-13T03:06:24;21.45;;;14.73;;
30233;SDS011;17046;52.074;4.748;2022-09-13T03:08:52;21.92;;;16.17;;
30233;SDS011;17046;52.074;4.748;2022-09-13T03:13:55;20.80;;;15.70;;
30233;SDS011;17046;52.074;4.748;2022-09-13T03:20:11;23.27;;;17.02;;
30233;SDS011;17046;52.074;4.748;2022-09-13T03:24:49;23.73;;;17.88;;
30233;SDS011;17046;52.074;4.748;2022-09-13T03:30:08;21.95;;;16.40;;
30233;SDS011;17046;52.074;4.748;2022-09-13T03:35:31;22.45;;;15.82;;
30233;SDS011;17046;52.074;4.748;2022-09-13T03:40:52;23.40;;;16.73;;
30233;SDS011;17046;52.074;4.748;2022-09-13T03:45:54;24.23;;;16.52;;
30233;SDS011;17046;52.074;4.748;2022-09-13T03:48:22;21.70;;;16.98;;
30233;SDS011;17046;52.074;4.748;2022-09-13T03:50:49;20.25;;;15.73;;
30233;SDS011;17046;52.074;4.748;2022-09-13T03:53:17;22.20;;;17.13;;
30233;SDS011;17046;52.074;4.748;2022-09-13T03:55:46;22.75;;;15.77;;
30233;SDS011;17046;52.074;4.748;2022-09-13T03:58:13;22.90;;;16.70;;
30233;SDS011;17046;52.074;4.748;2022-09-13T04:00:41;21.42;;;15.93;;
30233;SDS011;17046;52.074;4.748;2022-09-13T04:03:07;24.83;;;18.00;;
30233;SDS011;17046;52.074;4.748;2022-09-13T04:05:33;26.98;;;18.45;;
30233;SDS011;17046;52.074;4.748;2022-09-13T04:07:59;22.05;;;15.90;;
30233;SDS011;17046;52.074;4.748;2022-09-13T04:10:27;24.13;;;17.02;;
30233;SDS011;17046;52.074;4.748;2022-09-13T04:12:55;26.90;;;16.58;;
30233;SDS011;17046;52.074;4.748;2022-09-13T04:15:21;24.48;;;17.45;;
30233;SDS011;17046;52.074;4.748;2022-09-13T04:17:48;25.30;;;17.85;;
30233;SDS011;17046;52.074;4.748;2022-09-13T04:20:14;26.10;;;17.85;;
30233;SDS011;17046;52.074;4.748;2022-09-13T04:22:39;23.02;;;16.73;;
30233;SDS011;17046;52.074;4.748;2022-09-13T04:25:06;25.92;;;17.95;;
30233;SDS011;17046;52.074;4.748;2022-09-13T04:27:32;23.52;;;18.15;;
30233;SDS011;17046;52.074;4.748;2022-09-13T04:29:59;26.02;;;17.73;;
30233;SDS011;17046;52.074;4.748;2022-09-13T04:32:25;23.95;;;17.15;;
30233;SDS011;17046;52.074;4.748;2022-09-13T04:34:51;24.80;;;17.15;;
30233;SDS011;17046;52.074;4.748;2022-09-13T04:37:16;22.48;;;16.90;;
30233;SDS011;17046;52.074;4.748;2022-09-13T04:39:43;24.77;;;18.67;;
30233;SDS011;17046;52.074;4.748;2022-09-13T04:42:08;28.00;;;18.77;;
30233;SDS011;17046;52.074;4.748;2022-09-13T04:44:35;28.05;;;19.52;;
30233;SDS011;17046;52.074;4.748;2022-09-13T04:47:01;29.95;;;20.30;;
30233;SDS011;17046;52.074;4.748;2022-09-13T04:49:26;30.73;;;19.55;;
30233;SDS011;17046;52.074;4.748;2022-09-13T04:51:52;26.55;;;18.55;;
30233;SDS011;17046;52.074;4.748;2022-09-13T04:54:17;27.90;;;19.23;;
30233;SDS011;17046;52.074;4.748;2022-09-13T04:56:43;27.15;;;18.23;;
30233;SDS011;17046;52.074;4.748;2022-09-13T04:59:09;30.90;;;21.17;;
30233;SDS011;17046;52.074;4.748;2022-09-13T05:01:35;26.73;;;19.60;;
30233;SDS011;17046;52.074;4.748;2022-09-13T05:04:02;29.85;;;20.77;;
30233;SDS011;17046;52.074;4.748;2022-09-13T05:06:27;29.63;;;22.02;;
30233;SDS011;17046;52.074;4.748;2022-09-13T05:08:54;31.80;;;21.77;;
30233;SDS011;17046;52.074;4.748;2022-09-13T05:11:21;32.22;;;21.27;;
30233;SDS011;17046;52.074;4.748;2022-09-13T05:13:48;31.85;;;21.88;;
30233;SDS011;17046;52.074;4.748;2022-09-13T05:16:19;32.72;;;20.30;;
30233;SDS011;17046;52.074;4.748;2022-09-13T05:18:45;32.80;;;22.65;;
30233;SDS011;17046;52.074;4.748;2022-09-13T05:21:11;33.75;;;22.13;;
30233;SDS011;17046;52.074;4.748;2022-09-13T05:23:36;33.72;;;22.40;;
30233;SDS011;17046;52.074;4.748;2022-09-13T05:26:03;37.38;;;22.63;;
30233;SDS011;17046;52.074;4.748;2022-09-13T05:28:30;40.13;;;25.20;;
30233;SDS011;17046;52.074;4.748;2022-09-13T05:31:02;40.08;;;26.92;;
30233;SDS011;17046;52.074;4.748;2022-09-13T05:33:33;42.47;;;27.13;;
30233;SDS011;17046;52.074;4.748;2022-09-13T05:36:01;40.72;;;26.35;;
30233;SDS011;17046;52.074;4.748;2022-09-13T05:38:27;40.28;;;25.25;;
30233;SDS011;17046;52.074;4.748;2022-09-13T05:40:53;39.45;;;25.48;;
30233;SDS011;17046;52.074;4.748;2022-09-13T05:43:21;41.35;;;24.80;;
30233;SDS011;17046;52.074;4.748;2022-09-13T05:45:50;34.33;;;23.05;;
30233;SDS011;17046;52.074;4.748;2022-09-13T05:48:16;32.63;;;22.25;;
30233;SDS011;17046;52.074;4.748;2022-09-13T05:50:41;33.45;;;20.75;;
30233;SDS011;17046;52.074;4.748;2022-09-13T05:53:07;30.67;;;20.45;;
30233;SDS011;17046;52.074;4.748;2022-09-13T05:55:33;27.58;;;19.38;;
30233;SDS011;17046;52.074;4.748;2022-09-13T05:58:02;28.10;;;19.83;;
30233;SDS011;17046;52.074;4.748;2022-09-13T06:00:28;25.42;;;18.80;;
30233;SDS011;17046;52.074;4.748;2022-09-13T06:02:54;28.00;;;18.23;;
30233;SDS011;17046;52.074;4.748;2022-09-13T06:05:20;25.38;;;18.20;;
30233;SDS011;17046;52.074;4.748;2022-09-13T06:07:45;27.15;;;17.95;;
30233;SDS011;17046;52.074;4.748;2022-09-13T06:10:11;23.65;;;16.58;;
30233;SDS011;17046;52.074;4.748;2022-09-13T06:12:36;27.00;;;17.55;;
30233;SDS011;17046;52.074;4.748;2022-09-13T06:15:02;24.63;;;17.05;;
30233;SDS011;17046;52.074;4.748;2022-09-13T06:17:28;25.95;;;17.17;;
30233;SDS011;17046;52.074;4.748;2022-09-13T06:19:53;24.63;;;17.38;;
30233;SDS011;17046;52.074;4.748;2022-09-13T06:22:20;26.70;;;17.10;;
30233;SDS011;17046;52.074;4.748;2022-09-13T06:24:46;23.75;;;16.80;;
30233;SDS011;17046;52.074;4.748;2022-09-13T06:27:12;24.83;;;17.70;;
30233;SDS011;17046;52.074;4.748;2022-09-13T06:29:37;22.33;;;16.67;;
30233;SDS011;17046;52.074;4.748;2022-09-13T06:32:03;23.05;;;17.13;;
30233;SDS011;17046;52.074;4.748;2022-09-13T06:34:29;21.65;;;16.05;;
30233;SDS011;17046;52.074;4.748;2022-09-13T06:36:54;25.85;;;17.38;;
30233;SDS011;17046;52.074;4.748;2022-09-13T06:39:20;35.60;;;18.05;;
30233;SDS011;17046;52.074;4.748;2022-09-13T06:41:46;24.80;;;16.17;;
30233;SDS011;17046;52.074;4.748;2022-09-13T06:44:12;25.05;;;17.35;;
30233;SDS011;17046;52.074;4.748;2022-09-13T06:46:37;24.50;;;16.77;;
30233;SDS011;17046;52.074;4.748;2022-09-13T06:49:06;26.02;;;16.88;;
30233;SDS011;17046;52.074;4.748;2022-09-13T06:51:33;22.83;;;16.40;;
30233;SDS011;17046;52.074;4.748;2022-09-13T06:54:00;23.20;;;16.92;;
30233;SDS011;17046;52.074;4.748;2022-09-13T06:56:29;23.17;;;16.42;;
30233;SDS011;17046;52.074;4.748;2022-09-13T06:58:59;21.38;;;15.10;;
30233;SDS011;17046;52.074;4.748;2022-09-13T07:01:29;22.48;;;14.98;;
30233;SDS011;17046;52.074;4.748;2022-09-13T07:03:59;19.05;;;15.20;;
30233;SDS011;17046;52.074;4.748;2022-09-13T07:06:31;20.02;;;13.80;;
30233;SDS011;17046;52.074;4.748;2022-09-13T07:08:58;19.75;;;11.88;;
30233;SDS011;17046;52.074;4.748;2022-09-13T07:11:27;15.48;;;11.25;;
30233;SDS011;17046;52.074;4.748;2022-09-13T07:13:55;12.43;;;9.10;;
30233;SDS011;17046;52.074;4.748;2022-09-13T07:16:23;12.82;;;8.73;;
30233;SDS011;17046;52.074;4.748;2022-09-13T07:18:54;14.00;;;9.15;;
30233;SDS011;17046;52.074;4.748;2022-09-13T07:21:22;12.77;;;8.45;;
30233;SDS011;17046;52.074;4.748;2022-09-13T07:23:48;13.48;;;8.80;;
30233;SDS011;17046;52.074;4.748;2022-09-13T07:26:14;12.48;;;9.38;;
30233;SDS011;17046;52.074;4.748;2022-09-13T07:28:41;12.82;;;9.23;;
30233;SDS011;17046;52.074;4.748;2022-09-13T07:31:18;11.57;;;8.60;;
30233;SDS011;17046;52.074;4.748;2022-09-13T07:33:59;11.98;;;8.23;;
30233;SDS011;17046;52.074;4.748;2022-09-13T07:36:27;10.18;;;6.90;;
30233;SDS011;17046;52.074;4.748;2022-09-13T07:38:54;12.65;;;7.53;;
30233;SDS011;17046;52.074;4.748;2022-09-13T07:41:20;12.73;;;7.32;;
30233;SDS011;17046;52.074;4.748;2022-09-13T07:43:47;10.95;;;7.10;;
30233;SDS011;17046;52.074;4.748;2022-09-13T07:46:14;10.20;;;6.57;;
30233;SDS011;17046;52.074;4.748;2022-09-13T07:48:42;9.95;;;6.97;;
30233;SDS011;17046;52.074;4.748;2022-09-13T07:51:16;10.43;;;6.43;;
30233;SDS011;17046;52.074;4.748;2022-09-13T07:53:44;8.32;;;6.20;;
30233;SDS011;17046;52.074;4.748;2022-09-13T07:56:15;9.93;;;5.88;;
30233;SDS011;17046;52.074;4.748;2022-09-13T07:58:42;8.73;;;5.78;;
30233;SDS011;17046;52.074;4.748;2022-09-13T08:03:57;9.80;;;5.40;;
30233;SDS011;17046;52.074;4.748;2022-09-13T08:06:25;8.65;;;5.30;;
30233;SDS011;17046;52.074;4.748;2022-09-13T08:08:52;8.48;;;4.72;;
30233;SDS011;17046;52.074;4.748;2022-09-13T08:11:19;6.15;;;4.40;;
30233;SDS011;17046;52.074;4.748;2022-09-13T08:13:47;7.68;;;4.35;;
30233;SDS011;17046;52.074;4.748;2022-09-13T08:16:14;6.68;;;4.47;;
30233;SDS011;17046;52.074;4.748;2022-09-13T08:18:44;10.98;;;4.68;;
30233;SDS011;17046;52.074;4.748;2022-09-13T08:21:11;8.82;;;3.78;;
30233;SDS011;17046;52.074;4.748;2022-09-13T08:23:37;5.78;;;3.10;;
30233;SDS011;17046;52.074;4.748;2022-09-13T08:26:03;11.45;;;7.25;;
30233;SDS011;17046;52.074;4.748;2022-09-13T08:28:30;7.43;;;3.80;;
30233;SDS011;17046;52.074;4.748;2022-09-13T08:31:01;6.43;;;3.33;;
30233;SDS011;17046;52.074;4.748;2022-09-13T08:33:28;6.80;;;3.20;;
30233;SDS011;17046;52.074;4.748;2022-09-13T08:35:53;5.95;;;3.28;;
30233;SDS011;17046;52.074;4.748;2022-09-13T08:38:19;5.45;;;3.42;;
30233;SDS011;17046;52.074;4.748;2022-09-13T08:40:49;6.68;;;3.00;;
30233;SDS011;17046;52.074;4.748;2022-09-13T08:46:08;5.72;;;3.22;;
30233;SDS011;17046;52.074;4.748;2022-09-13T08:48:40;7.13;;;2.65;;
30233;SDS011;17046;52.074;4.748;2022-09-13T08:51:14;5.93;;;3.40;;
30233;SDS011;17046;52.074;4.748;2022-09-13T08:53:46;7.13;;;2.70;;
30233;SDS011;17046;52.074;4.748;2022-09-13T08:56:17;6.45;;;1.80;;
30233;SDS011;17046;52.074;4.748;2022-09-13T08:58:50;3.83;;;2.10;;
30233;SDS011;17046;52.074;4.748;2022-09-13T09:01:34;5.43;;;1.98;;
30233;SDS011;17046;52.074;4.748;2022-09-13T09:06:53;5.07;;;1.20;;
30233;SDS011;17046;52.074;4.748;2022-09-13T09:09:48;2.92;;;1.63;;
30233;SDS011;17046;52.074;4.748;2022-09-13T09:20:27;3.78;;;1.20;;
30233;SDS011;17046;52.074;4.748;2022-09-13T09:22:57;3.70;;;1.00;;
30233;SDS011;17046;52.074;4.748;2022-09-13T09:25:26;2.92;;;1.17;;
30233;SDS011;17046;52.074;4.748;2022-09-13T09:27:52;3.42;;;1.30;;
30233;SDS011;17046;52.074;4.748;2022-09-13T09:30:18;4.35;;;1.50;;
30233;SDS011;17046;52.074;4.748;2022-09-13T09:35:30;7.03;;;1.30;;
30233;SDS011;17046;52.074;4.748;2022-09-13T09:40:55;6.38;;;1.50;;
30233;SDS011;17046;52.074;4.748;2022-09-13T09:43:24;6.13;;;1.27;;
30233;SDS011;17046;52.074;4.748;2022-09-13T09:45:53;4.38;;;1.25;;
30233;SDS011;17046;52.074;4.748;2022-09-13T09:48:21;6.43;;;1.60;;
30233;SDS011;17046;52.074;4.748;2022-09-13T09:50:53;7.30;;;1.40;;
30233;SDS011;17046;52.074;4.748;2022-09-13T09:53:26;6.55;;;1.20;;
30233;SDS011;17046;52.074;4.748;2022-09-13T09:56:17;5.30;;;1.50;;
30233;SDS011;17046;52.074;4.748;2022-09-13T09:58:52;3.28;;;1.05;;
30233;SDS011;17046;52.074;4.748;2022-09-13T10:01:23;7.30;;;1.42;;
30233;SDS011;17046;52.074;4.748;2022-09-13T10:06:34;4.88;;;1.40;;
30233;SDS011;17046;52.074;4.748;2022-09-13T10:09:04;3.95;;;1.00;;
30233;SDS011;17046;52.074;4.748;2022-09-13T10:11:36;6.00;;;1.30;;
30233;SDS011;17046;52.074;4.748;2022-09-13T10:14:04;4.68;;;1.40;;
30233;SDS011;17046;52.074;4.748;2022-09-13T10:16:29;4.75;;;1.70;;
30233;SDS011;17046;52.074;4.748;2022-09-13T10:22:04;2.53;;;0.98;;
30233;SDS011;17046;52.074;4.748;2022-09-13T10:24:35;3.95;;;1.25;;
30233;SDS011;17046;52.074;4.748;2022-09-13T10:27:00;4.65;;;1.25;;
30233;SDS011;17046;52.074;4.748;2022-09-13T10:29:28;4.22;;;1.08;;
30233;SDS011;17046;52.074;4.748;2022-09-13T10:31:55;5.13;;;1.17;;
30233;SDS011;17046;52.074;4.748;2022-09-13T10:36:58;4.63;;;1.27;;
30233;SDS011;17046;52.074;4.748;2022-09-13T10:39:26;3.28;;;1.10;;
30233;SDS011;17046;52.074;4.748;2022-09-13T10:44:25;4.03;;;1.25;;
30233;SDS011;17046;52.074;4.748;2022-09-13T10:46:57;4.82;;;1.38;;
30233;SDS011;17046;52.074;4.748;2022-09-13T10:49:33;5.22;;;2.50;;
30233;SDS011;17046;52.074;4.748;2022-09-13T10:57:45;2.47;;;1.30;;
30233;SDS011;17046;52.074;4.748;2022-09-13T11:00:13;2.30;;;1.00;;
30233;SDS011;17046;52.074;4.748;2022-09-13T11:02:56;5.10;;;1.15;;
30233;SDS011;17046;52.074;4.748;2022-09-13T11:06:04;5.50;;;1.30;;
30233;SDS011;17046;52.074;4.748;2022-09-13T11:09:02;3.65;;;1.15;;
30233;SDS011;17046;52.074;4.748;2022-09-13T11:14:41;2.67;;;0.82;;
30233;SDS011;17046;52.074;4.748;2022-09-13T11:17:29;3.95;;;1.00;;
30233;SDS011;17046;52.074;4.748;2022-09-13T11:25:50;1.42;;;0.90;;
30233;SDS011;17046;52.074;4.748;2022-09-13T11:28:42;4.72;;;1.13;;
30233;SDS011;17046;52.074;4.748;2022-09-13T11:31:36;3.90;;;1.25;;
30233;SDS011;17046;52.074;4.748;2022-09-13T11:37:22;3.72;;;1.08;;
30233;SDS011;17046;52.074;4.748;2022-09-13T11:40:14;3.13;;;0.80;;
30233;SDS011;17046;52.074;4.748;2022-09-13T11:45:27;2.13;;;0.77;;
30233;SDS011;17046;52.074;4.748;2022-09-13T11:50:59;3.58;;;1.00;;
30233;SDS011;17046;52.074;4.748;2022-09-13T11:56:22;4.28;;;0.80;;
30233;SDS011;17046;52.074;4.748;2022-09-13T11:58:53;5.30;;;1.23;;
30233;SDS011;17046;52.074;4.748;2022-09-13T12:01:31;4.65;;;1.25;;
30233;SDS011;17046;52.074;4.748;2022-09-13T12:04:03;4.20;;;1.40;;
30233;SDS011;17046;52.074;4.748;2022-09-13T12:09:37;2.60;;;0.80;;
30233;SDS011;17046;52.074;4.748;2022-09-13T12:12:10;4.00;;;0.70;;
30233;SDS011;17046;52.074;4.748;2022-09-13T12:17:46;5.15;;;0.90;;
30233;SDS011;17046;52.074;4.748;2022-09-13T12:20:29;4.82;;;0.85;;
30233;SDS011;17046;52.074;4.748;2022-09-13T12:22:59;5.93;;;1.40;;
30233;SDS011;17046;52.074;4.748;2022-09-13T12:26:14;3.17;;;0.73;;
30233;SDS011;17046;52.074;4.748;2022-09-13T12:28:26;2.55;;;1.13;;
30233;SDS011;17046;52.074;4.748;2022-09-13T12:30:59;1.98;;;0.65;;
30233;SDS011;17046;52.074;4.748;2022-09-13T12:33:31;5.97;;;0.90;;
30233;SDS011;17046;52.074;4.748;2022-09-13T12:36:00;3.42;;;0.82;;
30233;SDS011;17046;52.074;4.748;2022-09-13T12:49:52;2.25;;;0.60;;
30233;SDS011;17046;52.074;4.748;2022-09-13T13:03:22;4.78;;;0.68;;
30233;SDS011;17046;52.074;4.748;2022-09-13T13:05:56;3.75;;;0.60;;
30233;SDS011;17046;52.074;4.748;2022-09-13T13:08:53;4.75;;;1.00;;
30233;SDS011;17046;52.074;4.748;2022-09-13T13:11:23;2.85;;;0.80;;
30233;SDS011;17046;52.074;4.748;2022-09-13T13:14:01;2.67;;;0.65;;
30233;SDS011;17046;52.074;4.748;2022-09-13T13:16:37;3.70;;;0.60;;
30233;SDS011;17046;52.074;4.748;2022-09-13T13:22:45;4.57;;;0.60;;
30233;SDS011;17046;52.074;4.748;2022-09-13T13:31:06;3.40;;;0.57;;
30233;SDS011;17046;52.074;4.748;2022-09-13T13:33:48;3.90;;;0.60;;
30233;SDS011;17046;52.074;4.748;2022-09-13T13:36:26;2.83;;;0.60;;
30233;SDS011;17046;52.074;4.748;2022-09-13T13:38:59;2.58;;;0.60;;
30233;SDS011;17046;52.074;4.748;2022-09-13T13:44:49;2.25;;;0.70;;
30233;SDS011;17046;52.074;4.748;2022-09-13T13:46:50;3.05;;;0.50;;
30233;SDS011;17046;52.074;4.748;2022-09-13T13:54:31;4.60;;;1.00;;
30233;SDS011;17046;52.074;4.748;2022-09-13T13:57:33;5.57;;;1.00;;
30233;SDS011;17046;52.074;4.748;2022-09-13T14:13:49;4.63;;;0.80;;
30233;SDS011;17046;52.074;4.748;2022-09-13T14:21:39;3.40;;;0.80;;
30233;SDS011;17046;52.074;4.748;2022-09-13T14:26:51;6.55;;;0.90;;
30233;SDS011;17046;52.074;4.748;2022-09-13T14:29:21;4.47;;;0.70;;
30233;SDS011;17046;52.074;4.748;2022-09-13T14:31:50;5.05;;;0.98;;
30233;SDS011;17046;52.074;4.748;2022-09-13T14:34:21;3.30;;;0.75;;
30233;SDS011;17046;52.074;4.748;2022-09-13T14:36:50;5.15;;;1.00;;
30233;SDS011;17046;52.074;4.748;2022-09-13T14:39:18;7.18;;;0.70;;
30233;SDS011;17046;52.074;4.748;2022-09-13T14:41:43;3.88;;;0.80;;
30233;SDS011;17046;52.074;4.748;2022-09-13T14:44:13;5.57;;;0.90;;
30233;SDS011;17046;52.074;4.748;2022-09-13T14:46:46;5.03;;;0.82;;
30233;SDS011;17046;52.074;4.748;2022-09-13T14:49:24;5.82;;;0.80;;
30233;SDS011;17046;52.074;4.748;2022-09-13T14:51:54;4.55;;;0.70;;
30233;SDS011;17046;52.074;4.748;2022-09-13T14:56:53;5.32;;;0.90;;
30233;SDS011;17046;52.074;4.748;2022-09-13T15:01:52;3.65;;;0.60;;
30233;SDS011;17046;52.074;4.748;2022-09-13T15:04:18;3.70;;;0.95;;
30233;SDS011;17046;52.074;4.748;2022-09-13T15:06:44;5.60;;;0.73;;
30233;SDS011;17046;52.074;4.748;2022-09-13T15:11:40;9.77;;;1.52;;
30233;SDS011;17046;52.074;4.748;2022-09-13T15:19:49;2.33;;;0.80;;
30233;SDS011;17046;52.074;4.748;2022-09-13T15:22:29;7.85;;;0.85;;
30233;SDS011;17046;52.074;4.748;2022-09-13T15:24:57;5.25;;;0.70;;
30233;SDS011;17046;52.074;4.748;2022-09-13T15:29:54;7.10;;;1.30;;
30233;SDS011;17046;52.074;4.748;2022-09-13T15:32:43;4.53;;;0.88;;
30233;SDS011;17046;52.074;4.748;2022-09-13T15:35:14;4.20;;;0.80;;
30233;SDS011;17046;52.074;4.748;2022-09-13T15:37:42;5.07;;;0.70;;
30233;SDS011;17046;52.074;4.748;2022-09-13T15:40:18;5.95;;;1.00;;
30233;SDS011;17046;52.074;4.748;2022-09-13T15:42:46;4.25;;;0.90;;
30233;SDS011;17046;52.074;4.748;2022-09-13T15:45:13;6.25;;;1.20;;
30233;SDS011;17046;52.074;4.748;2022-09-13T15:47:39;3.38;;;0.80;;
30233;SDS011;17046;52.074;4.748;2022-09-13T15:50:05;6.85;;;0.93;;
30233;SDS011;17046;52.074;4.748;2022-09-13T15:52:31;4.07;;;0.70;;
30233;SDS011;17046;52.074;4.748;2022-09-13T15:54:56;5.95;;;0.90;;
30233;SDS011;17046;52.074;4.748;2022-09-13T15:57:23;4.45;;;0.65;;
30233;SDS011;17046;52.074;4.748;2022-09-13T15:59:51;4.50;;;0.90;;
30233;SDS011;17046;52.074;4.748;2022-09-13T16:04:48;6.63;;;1.10;;
30233;SDS011;17046;52.074;4.748;2022-09-13T16:07:14;4.93;;;0.80;;
30233;SDS011;17046;52.074;4.748;2022-09-13T16:09:40;8.27;;;1.02;;
30233;SDS011;17046;52.074;4.748;2022-09-13T16:12:06;3.90;;;1.00;;
30233;SDS011;17046;52.074;4.748;2022-09-13T16:14:31;5.03;;;0.75;;
30233;SDS011;17046;52.074;4.748;2022-09-13T16:16:59;5.10;;;1.10;;
30233;SDS011;17046;52.074;4.748;2022-09-13T16:19:48;8.23;;;1.08;;
30233;SDS011;17046;52.074;4.748;2022-09-13T16:22:14;4.82;;;0.80;;
30233;SDS011;17046;52.074;4.748;2022-09-13T16:24:39;5.57;;;1.15;;
30233;SDS011;17046;52.074;4.748;2022-09-13T16:27:05;4.32;;;1.02;;
30233;SDS011;17046;52.074;4.748;2022-09-13T16:29:30;5.88;;;1.20;;
30233;SDS011;17046;52.074;4.748;2022-09-13T16:31:56;6.50;;;0.95;;
30233;SDS011;17046;52.074;4.748;2022-09-13T16:34:24;7.30;;;1.02;;
30233;SDS011;17046;52.074;4.748;2022-09-13T16:36:50;8.32;;;1.00;;
30233;SDS011;17046;52.074;4.748;2022-09-13T16:39:15;4.85;;;0.90;;
30233;SDS011;17046;52.074;4.748;2022-09-13T16:41:41;6.72;;;1.02;;
30233;SDS011;17046;52.074;4.748;2022-09-13T16:44:07;6.35;;;0.85;;
30233;SDS011;17046;52.074;4.748;2022-09-13T16:46:33;7.40;;;1.45;;
30233;SDS011;17046;52.074;4.748;2022-09-13T16:48:59;5.55;;;1.20;;
30233;SDS011;17046;52.074;4.748;2022-09-13T16:51:24;7.05;;;1.60;;
30233;SDS011;17046;52.074;4.748;2022-09-13T16:53:50;3.78;;;1.10;;
30233;SDS011;17046;52.074;4.748;2022-09-13T16:56:17;7.60;;;1.10;;
30233;SDS011;17046;52.074;4.748;2022-09-13T16:58:45;7.20;;;1.15;;
30233;SDS011;17046;52.074;4.748;2022-09-13T17:01:13;6.72;;;0.90;;
30233;SDS011;17046;52.074;4.748;2022-09-13T17:03:40;5.47;;;1.20;;
30233;SDS011;17046;52.074;4.748;2022-09-13T17:06:07;3.03;;;1.10;;
30233;SDS011;17046;52.074;4.748;2022-09-13T17:08:35;5.78;;;1.20;;
30233;SDS011;17046;52.074;4.748;2022-09-13T17:11:06;6.13;;;1.30;;
30233;SDS011;17046;52.074;4.748;2022-09-13T17:13:34;5.57;;;1.20;;
30233;SDS011;17046;52.074;4.748;2022-09-13T17:16:01;10.95;;;1.38;;
30233;SDS011;17046;52.074;4.748;2022-09-13T17:18:27;7.00;;;1.42;;
30233;SDS011;17046;52.074;4.748;2022-09-13T17:20:52;6.40;;;1.30;;
30233;SDS011;17046;52.074;4.748;2022-09-13T17:23:18;6.60;;;1.45;;
30233;SDS011;17046;52.074;4.748;2022-09-13T17:25:47;5.50;;;1.23;;
30233;SDS011;17046;52.074;4.748;2022-09-13T17:28:14;6.05;;;0.90;;
30233;SDS011;17046;52.074;4.748;2022-09-13T17:30:41;6.68;;;1.20;;
30233;SDS011;17046;52.074;4.748;2022-09-13T17:33:07;3.67;;;1.10;;
30233;SDS011;17046;52.074;4.748;2022-09-13T17:35:33;5.97;;;1.45;;
30233;SDS011;17046;52.074;4.748;2022-09-13T17:37:59;6.60;;;1.83;;
30233;SDS011;17046;52.074;4.748;2022-09-13T17:40:25;6.05;;;1.42;;
30233;SDS011;17046;52.074;4.748;2022-09-13T17:42:52;8.23;;;1.38;;
30233;SDS011;17046;52.074;4.748;2022-09-13T17:45:18;6.20;;;1.27;;
30233;SDS011;17046;52.074;4.748;2022-09-13T17:47:44;5.60;;;1.20;;
30233;SDS011;17046;52.074;4.748;2022-09-13T17:50:10;5.20;;;1.30;;
30233;SDS011;17046;52.074;4.748;2022-09-13T17:52:36;5.20;;;1.17;;
30233;SDS011;17046;52.074;4.748;2022-09-13T17:55:02;5.60;;;1.20;;
30233;SDS011;17046;52.074;4.748;2022-09-13T17:57:28;4.50;;;1.25;;
30233;SDS011;17046;52.074;4.748;2022-09-13T17:59:54;5.70;;;1.02;;
30233;SDS011;17046;52.074;4.748;2022-09-13T18:02:20;7.43;;;1.10;;
30233;SDS011;17046;52.074;4.748;2022-09-13T18:04:46;4.78;;;1.17;;
30233;SDS011;17046;52.074;4.748;2022-09-13T18:07:15;5.32;;;0.93;;
30233;SDS011;17046;52.074;4.748;2022-09-13T18:09:41;5.13;;;1.33;;